Green Level, North Carolina
Current Conditions -  °F | °C
As of 2:54 PM on Tuesday 25 Nov 2014 (Local Time) from KBUY Reporting Station
Scattered Clouds Scattered Clouds  
Wind Chill: 57°   Ceiling: Unl
Heat Index: 57°   Visibility: 10mi
Dew Point: 37°   Wind: 8mph
Humidity: 47%   Direction: 360°N
Pressure: 30.03"   Gusts: NA
Location:  36.2012°N, 79.3807°W
Report Text: KBUY 251954Z AUTO 36007KT 10SM SCT035 14/03 A3003 RMK AO2 SLP167 T01390028
Loading
Personal Weather Stations






























Interactive Weather Map New forecast layout! Learn more

10-Day Weather Forecast

Advertisements
Track Severe Weather on mobile